createdAt,value
2022-08-04T00:00:04.995Z,79.32
2022-08-04T00:01:05.007Z,79.61
2022-08-04T00:02:04.985Z,79.32
2022-08-04T00:03:05.407Z,79.52
2022-08-04T00:04:04.945Z,79.52
2022-08-04T00:05:05.553Z,79.82
2022-08-04T00:06:04.921Z,80.41
2022-08-04T00:07:04.934Z,79.72
2022-08-04T00:08:04.926Z,79.72
2022-08-04T00:09:04.894Z,80.02
2022-08-04T00:10:04.897Z,79.91
2022-08-04T00:11:04.865Z,79.61
2022-08-04T00:12:04.865Z,80.21
2022-08-04T00:13:04.886Z,80.02
2022-08-04T00:14:04.869Z,80.21
2022-08-04T00:15:04.826Z,79.91
2022-08-04T00:16:04.825Z,80.21
2022-08-04T00:17:04.806Z,79.85
2022-08-04T00:18:04.808Z,80.05
2022-08-04T00:19:04.810Z,80.65
2022-08-04T00:20:04.850Z,80.45
2022-08-04T00:21:04.776Z,80.55
2022-08-04T00:22:04.797Z,81.15
2022-08-04T00:23:04.897Z,81.15
2022-08-04T00:24:11.773Z,80.95
2022-08-04T00:25:05.724Z,80.95
2022-08-04T00:26:04.917Z,80.95
2022-08-04T00:27:04.951Z,80.85
2022-08-04T00:28:04.975Z,81.25
2022-08-04T00:29:04.679Z,81.56
2022-08-04T00:30:04.689Z,81.89
2022-08-04T00:31:04.658Z,81.89
2022-08-04T00:32:04.666Z,81.49
2022-08-04T00:33:04.651Z,81.39
2022-08-04T00:34:04.770Z,81.99
2022-08-04T00:35:04.602Z,81.89
2022-08-04T00:36:04.593Z,81.89
2022-08-04T00:37:04.579Z,82.19
2022-08-04T00:38:04.561Z,81.59
2022-08-04T00:39:04.615Z,81.79
2022-08-04T00:40:04.693Z,81.79
2022-08-04T00:41:04.521Z,82.39
2022-08-04T00:42:04.533Z,81.69
2022-08-04T00:43:04.510Z,81.79
2022-08-04T00:44:04.523Z,82.09
2022-08-04T00:45:04.510Z,82.09
2022-08-04T00:46:16.603Z,81.99
2022-08-04T00:47:05.461Z,82.39
2022-08-04T00:48:04.468Z,82.39
2022-08-04T00:49:04.442Z,82.63
2022-08-04T00:50:04.465Z,82.83
2022-08-04T00:51:04.413Z,82.43
2022-08-04T00:52:32.857Z,82.83
2022-08-04T00:53:05.647Z,82.83
2022-08-04T00:54:04.398Z,82.53
2022-08-04T00:55:08.607Z,82.53
2022-08-04T00:56:04.367Z,82.73
2022-08-04T00:57:04.357Z,82.83
2022-08-04T00:58:04.345Z,82.83
2022-08-04T00:59:04.325Z,83.23
2022-08-04T01:00:04.327Z,82.93
2022-08-04T01:01:04.422Z,83.03
2022-08-04T01:02:04.335Z,83.13
2022-08-04T01:03:04.303Z,83.33
2022-08-04T01:04:04.339Z,83.23
2022-08-04T01:05:04.266Z,83.23
2022-08-04T01:06:04.277Z,83.13
2022-08-04T01:07:04.238Z,83.13
2022-08-04T01:08:04.244Z,83.23
2022-08-04T01:09:04.224Z,83.43
2022-08-04T01:10:04.218Z,83.43
2022-08-04T01:11:04.224Z,83.93
2022-08-04T01:12:04.191Z,83.97
2022-08-04T01:13:05.038Z,84.03
2022-08-04T01:14:05.221Z,83.97
2022-08-04T01:15:04.162Z,83.87
2022-08-04T01:16:04.163Z,83.57
2022-08-04T01:17:04.142Z,83.87
2022-08-04T01:18:04.123Z,84.27
2022-08-04T01:19:04.110Z,84.27
2022-08-04T01:20:04.138Z,84.37
2022-08-04T01:21:04.130Z,84.37
2022-08-04T01:22:04.096Z,84.37
2022-08-04T01:23:04.062Z,84.47
2022-08-04T01:24:04.078Z,84.47
2022-08-04T01:25:04.661Z,84.67
2022-08-04T01:26:41.897Z,85.07
2022-08-04T01:27:05.021Z,84.87
2022-08-04T01:28:04.014Z,84.97
2022-08-04T01:29:04.011Z,85.37
2022-08-04T01:30:03.994Z,85.17
2022-08-04T01:31:03.986Z,85.27
2022-08-04T01:32:03.983Z,85.07
2022-08-04T01:33:03.946Z,85.27
2022-08-04T01:34:04.869Z,84.97
2022-08-04T01:35:03.934Z,85.17
2022-08-04T01:36:03.992Z,84.97
2022-08-04T01:37:03.919Z,85.27
2022-08-04T01:38:20.800Z,84.87
2022-08-04T01:39:04.942Z,84.97
2022-08-04T01:40:03.878Z,85.17
2022-08-04T01:41:03.854Z,85.17
2022-08-04T01:42:04.248Z,85.17
2022-08-04T01:43:03.835Z,84.87
2022-08-04T01:44:03.853Z,84.87
2022-08-04T01:45:03.842Z,84.97
2022-08-04T01:46:03.826Z,85.17
2022-08-04T01:47:03.807Z,85.57
2022-08-04T01:48:03.794Z,85.17
2022-08-04T01:49:03.775Z,85.27
2022-08-04T01:50:03.787Z,85.27
2022-08-04T01:51:03.777Z,85.37
2022-08-04T01:52:03.823Z,85.37
2022-08-04T01:53:03.754Z,85.27
2022-08-04T01:54:03.747Z,85.17
2022-08-04T01:55:03.830Z,84.87
2022-08-04T01:56:03.710Z,84.97
2022-08-04T01:57:38.225Z,85.17
2022-08-04T01:58:04.695Z,85.17
2022-08-04T01:59:03.693Z,84.63
2022-08-04T02:00:03.659Z,84.83
2022-08-04T02:01:04.893Z,84.63
2022-08-04T02:02:03.804Z,84.63
2022-08-04T02:03:03.664Z,85.13
2022-08-04T02:04:18.402Z,85.03
2022-08-04T02:05:04.611Z,84.93
2022-08-04T02:06:04.402Z,85.17
2022-08-04T02:07:03.579Z,85.33
2022-08-04T02:08:03.595Z,85.33
2022-08-04T02:09:03.563Z,85.33
2022-08-04T02:10:03.552Z,85.33
2022-08-04T02:11:03.525Z,85.43
2022-08-04T02:12:03.523Z,85.33
2022-08-04T02:13:03.530Z,85.73
2022-08-04T02:14:03.550Z,85.73
2022-08-04T02:15:03.491Z,85.43
2022-08-04T02:16:04.261Z,85.63
2022-08-04T02:17:03.511Z,85.73
2022-08-04T02:18:03.553Z,85.83
2022-08-04T02:19:03.551Z,85.63
2022-08-04T02:20:03.551Z,85.53
2022-08-04T02:21:03.470Z,85.63
2022-08-04T02:22:03.631Z,85.77
2022-08-04T02:23:03.647Z,85.87
2022-08-04T02:24:03.448Z,85.47
2022-08-04T02:25:03.695Z,85.47
2022-08-04T02:26:03.392Z,85.27
2022-08-04T02:27:03.355Z,85.37
2022-08-04T02:28:03.367Z,85.47
2022-08-04T02:29:03.396Z,85.57
2022-08-04T02:30:03.373Z,85.87
2022-08-04T02:31:03.315Z,85.68
2022-08-04T02:32:03.348Z,85.97
2022-08-04T02:33:03.320Z,86.07
2022-08-04T02:34:03.427Z,85.97
2022-08-04T02:35:03.336Z,85.87
2022-08-04T02:36:03.328Z,85.97
2022-08-04T02:37:03.319Z,86.18
2022-08-04T02:38:03.376Z,86.01
2022-08-04T02:39:03.487Z,85.91
2022-08-04T02:40:03.259Z,86.01
2022-08-04T02:41:03.400Z,86.52
2022-08-04T02:42:03.266Z,86.11
2022-08-04T02:43:03.351Z,86.21
2022-08-04T02:44:03.383Z,86.11
2022-08-04T02:45:03.381Z,86.11
2022-08-04T02:46:03.285Z,86.21
2022-08-04T02:47:03.404Z,86.41
2022-08-04T02:48:19.361Z,86.41
2022-08-04T02:49:04.299Z,86.21
2022-08-04T02:50:03.119Z,86.21
2022-08-04T02:51:03.201Z,86.32
2022-08-04T02:52:03.083Z,86.32
2022-08-04T02:53:03.319Z,86.52
2022-08-04T02:54:03.094Z,86.61
2022-08-04T02:55:03.152Z,86.61
2022-08-04T02:56:03.044Z,86.82
2022-08-04T02:57:08.065Z,86.71
2022-08-04T02:58:04.045Z,86.85
2022-08-04T02:59:02.999Z,86.85
2022-08-04T03:00:03.011Z,86.96
2022-08-04T03:01:03.072Z,87.16
2022-08-04T03:02:02.972Z,87.26
2022-08-04T03:03:02.952Z,87.05
2022-08-04T03:04:02.956Z,87.16
2022-08-04T03:05:02.968Z,87.26
2022-08-04T03:06:06.399Z,87.16
2022-08-04T03:07:03.915Z,87.26
2022-08-04T03:08:02.923Z,86.96
2022-08-04T03:09:02.909Z,86.96
2022-08-04T03:10:02.915Z,86.55
2022-08-04T03:11:02.863Z,87.16
2022-08-04T03:12:02.876Z,87.16
2022-08-04T03:13:02.860Z,86.85
2022-08-04T03:14:05.237Z,86.85
2022-08-04T03:15:03.863Z,87.26
2022-08-04T03:16:02.819Z,87.16
2022-08-04T03:17:02.811Z,87.16
2022-08-04T03:18:02.835Z,87.05
2022-08-04T03:19:02.767Z,86.85
2022-08-04T03:20:02.780Z,87.16
2022-08-04T03:21:02.770Z,86.76
2022-08-04T03:22:02.756Z,87.16
2022-08-04T03:23:17.842Z,87.36
2022-08-04T03:24:03.760Z,87.55
2022-08-04T03:25:02.728Z,87.36
2022-08-04T03:26:02.719Z,87.40
2022-08-04T03:27:02.700Z,87.70
2022-08-04T03:28:02.687Z,87.70
2022-08-04T03:29:02.709Z,87.70
2022-08-04T03:30:02.731Z,87.70
2022-08-04T03:31:02.668Z,87.70
2022-08-04T03:32:02.677Z,87.50
2022-08-04T03:33:02.620Z,87.60
2022-08-04T03:34:02.621Z,87.40
2022-08-04T03:35:02.613Z,87.80
2022-08-04T03:36:02.612Z,87.80
2022-08-04T03:37:02.572Z,87.80
2022-08-04T03:38:02.572Z,87.90
2022-08-04T03:39:02.637Z,88.20
2022-08-04T03:40:02.549Z,88.20
2022-08-04T03:41:03.993Z,87.80
2022-08-04T03:42:04.761Z,87.80
2022-08-04T03:43:02.540Z,88.10
2022-08-04T03:44:02.513Z,88.10
2022-08-04T03:45:02.500Z,88.40
2022-08-04T03:46:02.492Z,88.70
2022-08-04T03:47:02.491Z,88.20
2022-08-04T03:48:02.454Z,88.54
2022-08-04T03:49:02.452Z,88.64
2022-08-04T03:50:02.454Z,88.75
2022-08-04T03:51:02.423Z,88.95
2022-08-04T03:52:02.466Z,88.75
2022-08-04T03:53:02.396Z,88.54
2022-08-04T03:54:02.399Z,88.75
2022-08-04T03:55:02.419Z,89.14
2022-08-04T03:56:02.386Z,88.95
2022-08-04T03:57:02.375Z,89.04
2022-08-04T03:58:02.335Z,88.95
2022-08-04T03:59:02.334Z,89.14
2022-08-04T04:00:02.334Z,88.75
2022-08-04T04:01:02.335Z,88.54
2022-08-04T04:02:06.538Z,88.75
2022-08-04T04:03:02.307Z,88.54
2022-08-04T04:04:02.299Z,88.64
2022-08-04T04:05:02.267Z,88.84
2022-08-04T04:06:03.235Z,88.54
2022-08-04T04:07:02.238Z,88.75
2022-08-04T04:08:04.343Z,88.54
2022-08-04T04:09:03.231Z,88.64
2022-08-04T04:10:06.342Z,88.54
2022-08-04T04:11:02.206Z,88.54
2022-08-04T04:12:02.203Z,88.54
2022-08-04T04:13:02.227Z,88.54
2022-08-04T04:14:02.187Z,88.75
2022-08-04T04:15:02.188Z,88.54
2022-08-04T04:16:02.155Z,88.95
2022-08-04T04:17:02.172Z,88.64
2022-08-04T04:18:02.199Z,88.54
2022-08-04T04:19:02.140Z,88.95
2022-08-04T04:20:02.172Z,88.64
2022-08-04T04:21:02.091Z,88.64
2022-08-04T04:22:02.081Z,88.75
2022-08-04T04:23:02.067Z,88.95
2022-08-04T04:24:02.083Z,88.64
2022-08-04T04:25:02.143Z,88.64
2022-08-04T04:26:02.075Z,88.95
2022-08-04T04:27:02.127Z,89.14
2022-08-04T04:28:45.434Z,88.95
2022-08-04T04:29:03.627Z,89.04
2022-08-04T04:30:01.983Z,88.95
2022-08-04T04:31:02.031Z,89.25
2022-08-04T04:32:02.014Z,89.25
2022-08-04T04:33:02.049Z,89.34
2022-08-04T04:34:02.027Z,89.25
2022-08-04T04:35:01.971Z,89.54
2022-08-04T04:36:01.958Z,89.45
2022-08-04T04:37:01.922Z,88.95
2022-08-04T04:38:01.897Z,89.45
2022-08-04T04:39:02.143Z,89.54
2022-08-04T04:40:03.590Z,89.54
2022-08-04T04:41:01.887Z,89.45
2022-08-04T04:42:01.843Z,89.45
2022-08-04T04:43:01.842Z,89.75
2022-08-04T04:44:01.858Z,89.45
2022-08-04T04:45:01.827Z,89.34
2022-08-04T04:46:01.835Z,89.54
2022-08-04T04:47:01.812Z,89.65
2022-08-04T04:48:09.775Z,89.65
2022-08-04T04:49:02.807Z,89.75
2022-08-04T04:50:01.776Z,89.75
2022-08-04T04:51:01.786Z,89.75
2022-08-04T04:52:01.770Z,89.95
2022-08-04T04:53:01.742Z,89.85
2022-08-04T04:54:01.727Z,89.95
2022-08-04T04:55:01.747Z,90.05
2022-08-04T04:56:01.702Z,89.85
2022-08-04T04:57:01.687Z,89.85
2022-08-04T04:58:01.672Z,90.25
2022-08-04T04:59:01.678Z,90.05
2022-08-04T05:00:01.679Z,90.05
2022-08-04T05:01:01.919Z,90.25
2022-08-04T05:02:01.649Z,90.25
2022-08-04T05:03:04.881Z,90.35
2022-08-04T05:04:02.614Z,90.15
2022-08-04T05:05:01.620Z,89.95
2022-08-04T05:06:01.580Z,89.85
2022-08-04T05:07:01.587Z,89.85
2022-08-04T05:08:01.552Z,89.90
2022-08-04T05:09:02.560Z,90.11
2022-08-04T05:10:01.552Z,90.11
2022-08-04T05:11:01.552Z,90.20
2022-08-04T05:12:02.436Z,89.81
2022-08-04T05:14:36.104Z,90.00
2022-08-04T05:14:37.200Z,89.90
2022-08-04T05:15:02.527Z,90.11
2022-08-04T05:16:01.500Z,90.00
2022-08-04T05:17:01.464Z,89.81
2022-08-04T05:18:01.443Z,89.61
2022-08-04T05:19:01.475Z,89.81
2022-08-04T05:20:01.427Z,90.00
2022-08-04T05:21:01.485Z,90.20
2022-08-04T05:22:01.492Z,90.00
2022-08-04T05:23:01.423Z,89.90
2022-08-04T05:24:01.512Z,90.20
2022-08-04T05:25:01.445Z,90.00
2022-08-04T05:26:01.470Z,89.81
2022-08-04T05:27:01.545Z,89.90
2022-08-04T05:28:01.466Z,89.70
2022-08-04T05:29:01.424Z,90.00
2022-08-04T05:30:01.465Z,90.20
2022-08-04T05:31:01.485Z,90.20
2022-08-04T05:32:01.507Z,89.81
2022-08-04T05:33:01.609Z,90.31
2022-08-04T05:34:01.467Z,90.31
2022-08-04T05:35:01.503Z,90.70
2022-08-04T05:36:20.631Z,90.41
2022-08-04T05:37:02.303Z,90.41
2022-08-04T05:38:01.937Z,90.50
2022-08-04T05:39:01.543Z,90.31
2022-08-04T05:40:01.211Z,89.90
2022-08-04T05:41:01.222Z,89.70
2022-08-04T05:42:04.825Z,89.50
2022-08-04T05:43:01.203Z,89.81
2022-08-04T05:44:01.172Z,90.31
2022-08-04T05:45:01.181Z,90.56
2022-08-04T05:46:01.160Z,90.36
2022-08-04T05:47:01.130Z,89.96
2022-08-04T05:48:01.140Z,90.06
2022-08-04T05:49:01.113Z,90.06
2022-08-04T05:50:03.104Z,89.86
2022-08-04T05:51:01.397Z,88.96
2022-08-04T05:52:01.068Z,89.02
2022-08-04T05:53:01.440Z,89.42
2022-08-04T05:54:01.054Z,89.32
2022-08-04T05:55:01.048Z,88.52
2022-08-04T05:56:01.710Z,88.52
2022-08-04T05:57:01.041Z,88.92
2022-08-04T05:58:01.000Z,88.92
2022-08-04T05:59:01.008Z,89.07
2022-08-04T06:00:06.960Z,88.98
2022-08-04T06:01:02.040Z,89.07
2022-08-04T06:02:01.017Z,88.07
2022-08-04T06:03:01.020Z,87.87
2022-08-04T06:04:00.937Z,88.57
2022-08-04T06:05:00.932Z,88.53
2022-08-04T06:06:00.933Z,88.33
2022-08-04T06:07:00.944Z,87.73
2022-08-04T06:08:10.953Z,87.63
2022-08-04T06:09:01.887Z,87.73
2022-08-04T06:10:00.916Z,87.34
2022-08-04T06:11:00.899Z,87.53
2022-08-04T06:12:03.565Z,87.63
2022-08-04T06:13:00.912Z,87.59
2022-08-04T06:14:00.913Z,87.69
2022-08-04T06:15:00.895Z,88.79
2022-08-04T06:16:01.477Z,88.19
2022-08-04T06:17:00.861Z,87.29
2022-08-04T06:19:57.494Z,87.49
2022-08-04T06:20:03.933Z,87.09
2022-08-04T06:20:19.504Z,86.85
2022-08-04T06:21:01.990Z,86.75
2022-08-04T06:22:00.869Z,86.15
2022-08-04T06:23:00.772Z,86.35
2022-08-04T06:24:04.332Z,86.55
2022-08-04T06:25:00.746Z,86.25
2022-08-04T06:26:00.694Z,84.85
2022-08-04T06:27:00.712Z,84.65
2022-08-04T06:28:00.669Z,84.91
2022-08-04T06:29:00.664Z,84.31
2022-08-04T06:30:00.700Z,85.21
2022-08-04T06:31:00.661Z,85.31
2022-08-04T06:32:30.928Z,84.01
2022-08-04T06:33:03.864Z,83.31
2022-08-04T06:34:00.618Z,83.07
2022-08-04T06:35:00.699Z,83.87
2022-08-04T06:36:00.581Z,82.67
2022-08-04T06:37:00.599Z,83.47
2022-08-04T06:38:01.483Z,83.97
2022-08-04T06:39:00.630Z,82.03
2022-08-04T06:40:00.553Z,81.34
2022-08-04T06:41:00.542Z,81.93
2022-08-04T06:42:22.219Z,81.13
2022-08-04T06:43:01.761Z,80.44
2022-08-04T06:44:00.493Z,81.13
2022-08-04T06:45:00.527Z,81.30
2022-08-04T06:46:00.471Z,81.40
2022-08-04T06:47:00.479Z,81.40
2022-08-04T06:48:00.461Z,80.90
2022-08-04T06:49:00.458Z,81.20
2022-08-04T06:51:24.725Z,80.90
2022-08-04T06:51:26.464Z,80.10
2022-08-04T06:52:01.424Z,80.26
2022-08-04T06:53:00.394Z,80.26
2022-08-04T06:54:00.421Z,80.96
2022-08-04T06:55:00.385Z,80.76
2022-08-04T06:56:00.358Z,79.96
2022-08-04T06:57:00.405Z,78.77
2022-08-04T06:58:03.046Z,78.27
2022-08-04T06:59:00.354Z,79.13
2022-08-04T07:00:00.379Z,79.13
2022-08-04T07:01:00.329Z,78.73
2022-08-04T07:02:00.344Z,79.52
2022-08-04T07:03:00.273Z,79.13
2022-08-04T07:04:00.257Z,79.52
2022-08-04T07:05:03.322Z,79.58
2022-08-04T07:06:06.063Z,78.69
2022-08-04T07:07:01.359Z,78.39
2022-08-04T07:08:00.217Z,77.50
2022-08-04T07:09:00.261Z,77.69
2022-08-04T07:10:00.271Z,77.89
2022-08-04T07:11:00.209Z,78.25
2022-08-04T07:12:00.254Z,78.55
2022-08-04T07:13:00.270Z,77.66
2022-08-04T07:14:00.328Z,75.57
2022-08-04T07:15:00.300Z,75.37
2022-08-04T07:16:00.325Z,74.33
2022-08-04T07:17:00.359Z,74.73
2022-08-04T07:18:00.600Z,74.13
2022-08-04T07:19:09.779Z,74.99
2022-08-04T07:20:01.098Z,73.70
2022-08-04T07:21:00.120Z,73.11
2022-08-04T07:22:18.044Z,74.66
2022-08-04T07:23:01.051Z,74.26
2022-08-04T07:24:00.050Z,73.17
2022-08-04T07:25:00.050Z,73.27
2022-08-04T07:26:12.997Z,72.97
2022-08-04T07:27:01.014Z,73.03
2022-08-04T07:28:00.006Z,72.04
2022-08-04T07:29:00.020Z,70.25
2022-08-04T07:30:00.116Z,70.32
2022-08-04T07:30:59.990Z,70.81
2022-08-04T07:31:59.950Z,69.43
2022-08-04T07:32:59.954Z,68.83
2022-08-04T07:34:11.491Z,67.60
2022-08-04T07:35:00.977Z,68.70
2022-08-04T07:36:10.493Z,68.27
2022-08-04T07:37:00.902Z,67.47
2022-08-04T07:37:59.886Z,67.77
2022-08-04T07:38:59.912Z,67.74
2022-08-04T07:39:59.898Z,67.64
2022-08-04T07:40:59.898Z,67.05
2022-08-04T07:42:01.628Z,66.15
2022-08-04T07:42:59.854Z,64.43
2022-08-04T07:43:59.826Z,64.93
2022-08-04T07:44:59.840Z,65.33
2022-08-04T07:45:59.815Z,65.30
2022-08-04T07:46:59.810Z,64.20
2022-08-04T07:48:05.023Z,63.61
2022-08-04T07:49:00.792Z,62.88
2022-08-04T07:49:59.754Z,62.88
2022-08-04T07:50:59.778Z,62.29
2022-08-04T07:51:59.739Z,61.05
2022-08-04T07:53:53.326Z,60.35
2022-08-04T07:54:00.728Z,59.73
2022-08-04T07:54:59.730Z,58.94
2022-08-04T07:55:59.690Z,58.22
2022-08-04T07:56:59.705Z,58.12
2022-08-04T07:57:59.679Z,58.02
2022-08-04T07:58:59.735Z,58.00
2022-08-04T07:59:59.648Z,57.01
2022-08-04T08:00:59.651Z,58.19
2022-08-04T08:01:59.651Z,56.68
2022-08-04T08:02:59.699Z,55.99
2022-08-04T08:03:59.647Z,57.07
2022-08-04T08:04:59.604Z,56.88
2022-08-04T08:06:30.918Z,56.88
2022-08-04T08:07:00.626Z,56.48
2022-08-04T08:07:59.559Z,55.99
2022-08-04T08:08:59.563Z,57.15
2022-08-04T08:09:59.531Z,56.06
2022-08-04T08:10:59.534Z,56.36
2022-08-04T08:12:36.980Z,57.22
2022-08-04T08:13:00.543Z,55.83
2022-08-04T08:13:59.515Z,55.74
2022-08-04T08:14:59.568Z,55.15
2022-08-04T08:15:59.487Z,54.75
2022-08-04T08:16:59.572Z,55.22
2022-08-04T08:18:00.691Z,54.93
2022-08-04T08:18:59.463Z,56.10
2022-08-04T08:19:59.423Z,54.93
2022-08-04T08:20:59.427Z,54.72
2022-08-04T08:22:00.754Z,55.12
2022-08-04T08:22:59.439Z,55.58
2022-08-04T08:23:59.403Z,54.90
2022-08-04T08:24:59.535Z,53.81
2022-08-04T08:25:59.369Z,53.61
2022-08-04T08:26:59.377Z,54.57
2022-08-04T08:27:59.369Z,53.39
2022-08-04T08:28:59.384Z,53.59
2022-08-04T08:29:59.319Z,54.38
2022-08-04T08:30:59.505Z,53.78
2022-08-04T08:32:04.065Z,53.66
2022-08-04T08:33:00.304Z,52.97
2022-08-04T08:33:59.296Z,53.36
2022-08-04T08:34:59.427Z,52.87
2022-08-04T08:35:59.245Z,53.36
2022-08-04T08:36:59.257Z,52.97
2022-08-04T08:37:59.232Z,53.76
2022-08-04T08:38:59.544Z,53.66
2022-08-04T08:39:59.244Z,52.09
2022-08-04T08:40:59.216Z,52.58
2022-08-04T08:41:59.220Z,52.38
2022-08-04T08:42:59.187Z,53.36
2022-08-04T08:44:06.902Z,52.87
2022-08-04T08:45:00.158Z,53.07
2022-08-04T08:45:59.164Z,52.68
2022-08-04T08:46:59.135Z,52.65
2022-08-04T08:48:06.027Z,52.78
2022-08-04T08:49:00.124Z,52.55
2022-08-04T08:50:02.613Z,51.86
2022-08-04T08:50:59.084Z,51.76
2022-08-04T08:51:59.191Z,52.16
2022-08-04T08:53:02.629Z,52.55
2022-08-04T08:53:59.127Z,52.72
2022-08-04T08:54:59.112Z,52.03
2022-08-04T08:55:59.295Z,52.14
2022-08-04T08:56:59.048Z,53.19
2022-08-04T08:58:00.741Z,51.40
2022-08-04T08:58:59.115Z,51.59
2022-08-04T08:59:59.160Z,51.20
2022-08-04T09:00:59.211Z,51.20
2022-08-04T09:01:59.284Z,51.50
2022-08-04T09:03:04.774Z,51.22
2022-08-04T09:03:59.967Z,52.38
2022-08-04T09:04:59.423Z,51.40
2022-08-04T09:05:59.191Z,52.18
2022-08-04T09:06:59.381Z,50.78
2022-08-04T09:07:59.260Z,51.07
2022-08-04T09:08:59.192Z,50.88
2022-08-04T09:09:59.284Z,51.07
2022-08-04T09:10:59.308Z,51.45
2022-08-04T09:11:59.323Z,51.15
2022-08-04T09:12:59.232Z,52.03
2022-08-04T09:13:59.257Z,50.44
2022-08-04T09:14:58.849Z,50.24
2022-08-04T09:15:58.844Z,50.63
2022-08-04T09:17:05.872Z,49.55
2022-08-04T09:17:58.804Z,49.46
2022-08-04T09:18:59.552Z,50.16
2022-08-04T09:19:58.784Z,49.97
2022-08-04T09:20:58.792Z,51.05
2022-08-04T09:21:58.763Z,49.85
2022-08-04T09:22:58.743Z,49.95
2022-08-04T09:23:58.736Z,49.63
2022-08-04T09:24:58.715Z,48.57
2022-08-04T09:25:58.716Z,49.07
2022-08-04T09:26:59.886Z,49.33
2022-08-04T09:28:02.869Z,49.51
2022-08-04T09:28:59.691Z,48.52
2022-08-04T09:29:58.675Z,48.85
2022-08-04T09:30:58.675Z,49.41
2022-08-04T09:32:06.976Z,48.72
2022-08-04T09:32:59.656Z,48.63
2022-08-04T09:33:58.648Z,49.31
2022-08-04T09:35:04.648Z,50.20
2022-08-04T09:35:59.834Z,49.07
2022-08-04T09:36:58.596Z,46.50
2022-08-04T09:37:58.647Z,46.57
2022-08-04T09:38:58.646Z,47.14
2022-08-04T09:39:58.577Z,46.97
2022-08-04T09:40:58.730Z,46.98
2022-08-04T09:41:59.636Z,48.16
2022-08-04T09:42:58.553Z,48.65
2022-08-04T09:44:51.225Z,47.18
2022-08-04T09:45:05.744Z,47.75
2022-08-04T09:45:59.525Z,46.65
2022-08-04T09:46:59.765Z,47.92
2022-08-04T09:47:58.504Z,46.82
2022-08-04T09:48:58.464Z,45.86
2022-08-04T09:49:58.464Z,45.86
2022-08-04T09:50:58.475Z,47.43
2022-08-04T09:51:59.782Z,46.14
2022-08-04T09:52:58.439Z,44.28
2022-08-04T09:53:58.424Z,43.89
2022-08-04T09:54:58.421Z,44.59
2022-08-04T09:56:02.670Z,44.98
2022-08-04T09:56:59.637Z,45.59
2022-08-04T09:57:58.413Z,45.69
2022-08-04T09:58:58.444Z,43.91
2022-08-04T09:59:58.359Z,43.49
2022-08-04T10:00:58.357Z,42.42
2022-08-04T10:01:58.982Z,42.32
2022-08-04T10:02:58.361Z,42.81
2022-08-04T10:03:58.308Z,43.49
2022-08-04T10:04:58.296Z,42.50
2022-08-04T10:06:05.420Z,42.21
2022-08-04T10:06:58.312Z,42.61
2022-08-04T10:08:02.105Z,43.89
2022-08-04T10:08:59.253Z,43.91
2022-08-04T10:09:58.256Z,43.13
2022-08-04T10:10:58.246Z,42.85
2022-08-04T10:11:58.226Z,44.13
2022-08-04T10:12:58.278Z,43.54
2022-08-04T10:13:58.214Z,43.73
2022-08-04T10:14:58.192Z,43.52
2022-08-04T10:15:58.225Z,43.81
2022-08-04T10:16:58.189Z,43.71
2022-08-04T10:17:58.164Z,44.40
2022-08-04T10:18:58.197Z,44.01
2022-08-04T10:19:59.165Z,44.79
2022-08-04T10:21:02.514Z,42.32
2022-08-04T10:21:59.447Z,41.64
2022-08-04T10:23:11.246Z,42.81
2022-08-04T10:24:00.393Z,43.08
2022-08-04T10:24:58.089Z,41.72
2022-08-04T10:26:05.314Z,41.91
2022-08-04T10:26:59.068Z,41.42
2022-08-04T10:27:58.061Z,42.69
2022-08-04T10:28:58.078Z,41.91
2022-08-04T10:29:58.040Z,42.30
2022-08-04T10:30:58.033Z,41.70
2022-08-04T10:31:58.013Z,42.77
2022-08-04T10:32:58.021Z,41.89
2022-08-04T10:33:58.021Z,42.11
2022-08-04T10:34:57.975Z,42.29
2022-08-04T10:35:57.985Z,42.87
2022-08-04T10:36:57.953Z,43.63
2022-08-04T10:38:01.717Z,41.58
2022-08-04T10:38:58.042Z,41.31
2022-08-04T10:39:57.975Z,41.80
2022-08-04T10:40:57.917Z,41.02
2022-08-04T10:41:59.662Z,42.16
2022-08-04T10:42:57.913Z,40.11
2022-08-04T10:43:57.897Z,40.53
2022-08-04T10:44:58.267Z,40.82
2022-08-04T10:45:58.440Z,42.19
2022-08-04T10:46:57.868Z,40.89
2022-08-04T10:47:57.857Z,39.53
2022-08-04T10:48:57.826Z,40.11
2022-08-04T10:49:57.865Z,40.31
2022-08-04T10:50:57.809Z,40.89
2022-08-04T10:51:59.560Z,40.88
2022-08-04T10:52:57.801Z,40.09
2022-08-04T10:53:57.789Z,41.27
2022-08-04T10:54:57.950Z,39.90
2022-08-04T10:56:06.345Z,39.80
2022-08-04T10:56:58.741Z,40.09
2022-08-04T10:57:57.757Z,40.88
2022-08-04T10:58:57.724Z,40.41
2022-08-04T11:00:00.705Z,38.94
2022-08-04T11:00:58.729Z,40.78
2022-08-04T11:02:01.008Z,40.66
2022-08-04T11:02:58.751Z,40.16
2022-08-04T11:03:57.681Z,39.16
2022-08-04T11:04:57.698Z,38.87
2022-08-04T11:05:57.682Z,39.57
2022-08-04T11:06:57.694Z,39.18
2022-08-04T11:07:57.654Z,39.16
2022-08-04T11:08:57.630Z,39.34
2022-08-04T11:09:57.649Z,39.06
2022-08-04T11:10:57.626Z,40.11
2022-08-04T11:12:02.070Z,38.77
2022-08-04T11:12:57.581Z,38.49
2022-08-04T11:13:57.586Z,37.52
2022-08-04T11:14:57.582Z,37.83
2022-08-04T11:15:57.578Z,38.32
2022-08-04T11:16:57.547Z,37.93
2022-08-04T11:17:57.546Z,36.63
2022-08-04T11:18:57.513Z,37.31
2022-08-04T11:20:12.355Z,37.79
2022-08-04T11:20:58.518Z,36.51
2022-08-04T11:21:57.497Z,36.32
2022-08-04T11:22:57.531Z,35.73
2022-08-04T11:23:57.479Z,35.53
2022-08-04T11:24:57.474Z,35.53
2022-08-04T11:25:57.516Z,34.56
2022-08-04T11:26:57.438Z,34.55
2022-08-04T11:27:57.466Z,35.15
2022-08-04T11:29:04.063Z,35.44
2022-08-04T11:29:58.452Z,35.15
2022-08-04T11:30:57.411Z,35.44
2022-08-04T11:31:57.382Z,35.73
2022-08-04T11:32:57.378Z,33.80
2022-08-04T11:33:57.374Z,35.18
2022-08-04T11:34:57.356Z,36.27
2022-08-04T11:35:57.364Z,35.39
2022-08-04T11:36:57.346Z,35.71
2022-08-04T11:37:57.327Z,36.58
2022-08-04T11:38:57.372Z,35.71
2022-08-04T11:39:57.299Z,35.00
2022-08-04T11:41:02.487Z,34.53
2022-08-04T11:41:58.330Z,36.29
2022-08-04T11:42:57.279Z,36.00
2022-08-04T11:44:02.302Z,36.02
2022-08-04T11:44:58.280Z,36.99
2022-08-04T11:45:57.249Z,35.92
2022-08-04T11:46:57.330Z,36.13
2022-08-04T11:47:57.670Z,36.13
2022-08-04T11:48:57.199Z,37.57
2022-08-04T11:49:58.156Z,36.21
2022-08-04T11:50:57.199Z,37.07
2022-08-04T11:51:57.206Z,36.18
2022-08-04T11:52:57.214Z,35.88
2022-08-04T11:53:57.164Z,35.49
2022-08-04T11:54:57.146Z,34.91
2022-08-04T11:56:07.807Z,35.31
2022-08-04T11:56:58.134Z,35.02
2022-08-04T11:57:57.130Z,35.80
2022-08-04T11:58:57.095Z,35.41
2022-08-04T11:59:57.114Z,36.39
2022-08-04T12:00:58.072Z,36.66
2022-08-04T12:01:57.131Z,36.47
2022-08-04T12:02:57.070Z,36.47
2022-08-04T12:04:04.017Z,37.13
2022-08-04T12:04:58.045Z,36.74
2022-08-04T12:05:57.035Z,36.25
2022-08-04T12:07:15.152Z,37.15
2022-08-04T12:07:58.023Z,37.17
2022-08-04T12:08:57.000Z,37.73
2022-08-04T12:09:56.999Z,36.55
2022-08-04T12:10:56.995Z,36.74
2022-08-04T12:11:57.010Z,37.52
2022-08-04T12:12:56.968Z,38.30
2022-08-04T12:14:00.614Z,37.02
2022-08-04T12:14:56.928Z,37.62
2022-08-04T12:15:56.947Z,39.37
2022-08-04T12:16:56.927Z,37.91
2022-08-04T12:17:56.900Z,38.20
2022-08-04T12:18:56.911Z,38.48
2022-08-04T12:20:04.112Z,38.96
2022-08-04T12:20:57.867Z,38.26
2022-08-04T12:21:57.059Z,40.01
2022-08-04T12:22:56.882Z,41.86
2022-08-04T12:24:00.488Z,43.25
2022-08-04T12:24:56.839Z,43.54
2022-08-04T12:25:56.901Z,44.13
2022-08-04T12:26:56.804Z,44.32
2022-08-04T12:27:56.802Z,44.42
2022-08-04T12:29:12.049Z,43.76
2022-08-04T12:31:02.220Z,44.27
2022-08-04T12:31:03.402Z,44.66
2022-08-04T12:31:57.803Z,44.38
2022-08-04T12:32:56.743Z,44.90
2022-08-04T12:34:05.239Z,44.78
2022-08-04T12:34:57.943Z,44.31
2022-08-04T12:35:57.446Z,44.60
2022-08-04T12:36:58.090Z,44.60
2022-08-04T12:37:57.084Z,45.19
2022-08-04T12:38:56.772Z,44.92
2022-08-04T12:40:27.673Z,46.09
2022-08-04T12:40:57.795Z,44.60
2022-08-04T12:41:56.675Z,44.51
2022-08-04T12:42:59.726Z,44.51
2022-08-04T12:43:56.661Z,44.12
2022-08-04T12:44:56.647Z,44.04
2022-08-04T12:45:56.619Z,43.85
2022-08-04T12:46:56.627Z,44.06
2022-08-04T12:47:57.616Z,44.74
2022-08-04T12:48:56.587Z,44.65
2022-08-04T12:50:00.682Z,45.04
2022-08-04T12:50:57.561Z,43.96
2022-08-04T12:52:08.510Z,45.23